Nueva York, NY

12:07 AM EST en Diciembre 23, 2014 (GMT -0500)
Sutton East | Change Station
CLOSE
Current Station
Estación meteorológica personal
Location: New York, NY
Altura: 79 ft
Estaciones meteorológicas cercanas

Alt 79 ft 40.76 °N, 73.97 °W | Updated 3 minutes ago

Overcast
Nublado
46.4 ° F
Sensación térmica 46 ° F
N
0.0
Viento Variable Viento desde SSO

Hoy
Alta -- | Baja -- ° F
--% Posibilidad de precipitaciones
Ayer
Alta -- | Baja -- ° F
Precip. -- pul
7:17 AM 4:32 PM
Luna nueva, 2% visible
Presión 30.16 pul
Visibilidad 6.0 Millas
Nubes Nublado 400 ft
Vientos helados 46 ° F
Punto de rocío No disponible.
Humedad No disponible.
Precipitaciones 0.00 pul
Espesor de la nieve No disponible.
UV 0 de una escala de 12
Polen .10 de una escala de 12
Calidad del aire No disponible.
Flu Activity No disponible.
METAR KNYC 230451Z AUTO VRB05KT 6SM BR OVC004 07/06 A3018 RMK AO2 RAE0358 SLP211 P0000 T00670056 400670017 $

More Conditions Fewer Conditions

Presión 30.16 pul
Visibilidad 6.0 Millas
Nubes Nublado 400 ft
Vientos helados 46 ° F
Punto de rocío No disponible.
Humedad No disponible.
Precipitaciones 0.00 pul
Espesor de la nieve No disponible.
UV 0 de una escala de 12
Polen .10 de una escala de 12
Calidad del aire No disponible.
Flu Activity No disponible.
METAR KNYC 230451Z AUTO VRB05KT 6SM BR OVC004 07/06 A3018 RMK AO2 RAE0358 SLP211 P0000 T00670056 400670017 $

More Conditions Fewer Conditions

10-Day Weather Forecast

Almanac

Astronomía

Dec. 23, 2014 Salida Puesta
Hora real
Crepúsculo civil
Crepúsculo náutico
Crepúsculo astronómico
Luna
Horas de luz
Horas de luz
Tomorrow will be .
, % of the Moon is Illuminated

Extremos de hoy

Máximos del estado Bajos del estado

Community

WunderPhotos

Upload Photos

1,779,780 ¡fotos cargadas!

WunderBlogs® & News

Nearby

Calidad del aire

  Calidad del aire Índice AQ Contaminante
Not available.

Grosos de nieve

Estación Profundido Altura

Actividad de terremotos

Ciudad Distance Mag. Tiempo y dato
Magnitud mínima muestra es 2,5.

Temperaturas de aguas costeras

Lugar Temperatura

Estaciones meteorológicas cercanas